<?xml version="1.0" encoding="UTF-8"?>
<gpx xmlns="http://www.topografix.com/GPX/1/1" xmlns:xsi="http://www.w3.org/2001/XMLSchema-instance" version="1.1" xsi:schemaLocation="http://www.topografix.com/GPX/1/1 http://www.topografix.com/GPX/1/1/gpx.xsd">
  <metadata>
    <name>Last TRI - Sprint Aquabike</name>
  </metadata>
  <trk>
    <name>Last TRI - Sprint Aquabike</name>
    <trkseg>
      <trkpt lat="42.731759" lon="-83.087743">
        <ele>248.887453</ele>
        <time>2024-09-22T09:10:00.000Z</time>
      </trkpt>
      <trkpt lat="42.732227" lon="-83.087722">
        <ele>248.887449</ele>
        <time>2024-09-22T09:10:05.000Z</time>
      </trkpt>
      <trkpt lat="42.732812" lon="-83.087725">
        <ele>249.036661</ele>
        <time>2024-09-22T09:10:12.000Z</time>
      </trkpt>
      <trkpt lat="42.732935" lon="-83.087685">
        <ele>249.148647</ele>
        <time>2024-09-22T09:10:13.000Z</time>
      </trkpt>
      <trkpt lat="42.733368" lon="-83.087679">
        <ele>249.526998</ele>
        <time>2024-09-22T09:10:18.000Z</time>
      </trkpt>
      <trkpt lat="42.733473" lon="-83.087684">
        <ele>249.625805</ele>
        <time>2024-09-22T09:10:19.000Z</time>
      </trkpt>
      <trkpt lat="42.733475" lon="-83.087644">
        <ele>249.654169</ele>
        <time>2024-09-22T09:10:19.000Z</time>
      </trkpt>
      <trkpt lat="42.73379" lon="-83.084288">
        <ele>251.530794</ele>
        <time>2024-09-22T09:10:47.000Z</time>
      </trkpt>
      <trkpt lat="42.7339" lon="-83.083674">
        <ele>251.700797</ele>
        <time>2024-09-22T09:10:52.000Z</time>
      </trkpt>
      <trkpt lat="42.734049" lon="-83.083029">
        <ele>251.695998</ele>
        <time>2024-09-22T09:10:58.000Z</time>
      </trkpt>
      <trkpt lat="42.734255" lon="-83.082456">
        <ele>251.691274</ele>
        <time>2024-09-22T09:11:03.000Z</time>
      </trkpt>
      <trkpt lat="42.73451" lon="-83.081936">
        <ele>251.686842</ele>
        <time>2024-09-22T09:11:08.000Z</time>
      </trkpt>
      <trkpt lat="42.734863" lon="-83.081337">
        <ele>251.712764</ele>
        <time>2024-09-22T09:11:14.000Z</time>
      </trkpt>
      <trkpt lat="42.735352" lon="-83.08077">
        <ele>251.755445</ele>
        <time>2024-09-22T09:11:21.000Z</time>
      </trkpt>
      <trkpt lat="42.738158" lon="-83.078338">
        <ele>252.218265</ele>
        <time>2024-09-22T09:11:58.000Z</time>
      </trkpt>
      <trkpt lat="42.738279" lon="-83.078234">
        <ele>252.205511</ele>
        <time>2024-09-22T09:12:00.000Z</time>
      </trkpt>
      <trkpt lat="42.738567" lon="-83.077898">
        <ele>252.16966</ele>
        <time>2024-09-22T09:12:04.000Z</time>
      </trkpt>
      <trkpt lat="42.738758" lon="-83.077535">
        <ele>252.138037</ele>
        <time>2024-09-22T09:12:08.000Z</time>
      </trkpt>
      <trkpt lat="42.738893" lon="-83.077134">
        <ele>251.891654</ele>
        <time>2024-09-22T09:12:12.000Z</time>
      </trkpt>
      <trkpt lat="42.738992" lon="-83.076756">
        <ele>251.422326</ele>
        <time>2024-09-22T09:12:15.000Z</time>
      </trkpt>
      <trkpt lat="42.739016" lon="-83.076589">
        <ele>251.238253</ele>
        <time>2024-09-22T09:12:16.000Z</time>
      </trkpt>
      <trkpt lat="42.739069" lon="-83.076206">
        <ele>250.779036</ele>
        <time>2024-09-22T09:12:19.000Z</time>
      </trkpt>
      <trkpt lat="42.73905" lon="-83.075723">
        <ele>250.218643</ele>
        <time>2024-09-22T09:12:23.000Z</time>
      </trkpt>
      <trkpt lat="42.738975" lon="-83.075219">
        <ele>249.630329</ele>
        <time>2024-09-22T09:12:27.000Z</time>
      </trkpt>
      <trkpt lat="42.738807" lon="-83.074662">
        <ele>249.004683</ele>
        <time>2024-09-22T09:12:32.000Z</time>
      </trkpt>
      <trkpt lat="42.738426" lon="-83.073996">
        <ele>248.224508</ele>
        <time>2024-09-22T09:12:39.000Z</time>
      </trkpt>
      <trkpt lat="42.737205" lon="-83.072101">
        <ele>247.660643</ele>
        <time>2024-09-22T09:13:00.000Z</time>
      </trkpt>
      <trkpt lat="42.737071" lon="-83.071897">
        <ele>247.804465</ele>
        <time>2024-09-22T09:13:02.000Z</time>
      </trkpt>
      <trkpt lat="42.736519" lon="-83.071054">
        <ele>248.545262</ele>
        <time>2024-09-22T09:13:11.000Z</time>
      </trkpt>
      <trkpt lat="42.736359" lon="-83.070782">
        <ele>249.071039</ele>
        <time>2024-09-22T09:13:14.000Z</time>
      </trkpt>
      <trkpt lat="42.736192" lon="-83.07036">
        <ele>249.777153</ele>
        <time>2024-09-22T09:13:18.000Z</time>
      </trkpt>
      <trkpt lat="42.736089" lon="-83.069984">
        <ele>250.375915</ele>
        <time>2024-09-22T09:13:21.000Z</time>
      </trkpt>
      <trkpt lat="42.736024" lon="-83.069643">
        <ele>250.887991</ele>
        <time>2024-09-22T09:13:24.000Z</time>
      </trkpt>
      <trkpt lat="42.735981" lon="-83.069332">
        <ele>251.356768</ele>
        <time>2024-09-22T09:13:27.000Z</time>
      </trkpt>
      <trkpt lat="42.735985" lon="-83.068738">
        <ele>252.130391</ele>
        <time>2024-09-22T09:13:32.000Z</time>
      </trkpt>
      <trkpt lat="42.736215" lon="-83.066065">
        <ele>254.590977</ele>
        <time>2024-09-22T09:13:54.000Z</time>
      </trkpt>
      <trkpt lat="42.736267" lon="-83.065473">
        <ele>255.08531</ele>
        <time>2024-09-22T09:13:59.000Z</time>
      </trkpt>
      <trkpt lat="42.736298" lon="-83.064958">
        <ele>255.52872</ele>
        <time>2024-09-22T09:14:03.000Z</time>
      </trkpt>
      <trkpt lat="42.736299" lon="-83.064515">
        <ele>255.894687</ele>
        <time>2024-09-22T09:14:07.000Z</time>
      </trkpt>
      <trkpt lat="42.736271" lon="-83.064272">
        <ele>256.106176</ele>
        <time>2024-09-22T09:14:09.000Z</time>
      </trkpt>
      <trkpt lat="42.736184" lon="-83.063808">
        <ele>256.485786</ele>
        <time>2024-09-22T09:14:13.000Z</time>
      </trkpt>
      <trkpt lat="42.736046" lon="-83.063407">
        <ele>256.842039</ele>
        <time>2024-09-22T09:14:17.000Z</time>
      </trkpt>
      <trkpt lat="42.735836" lon="-83.063022">
        <ele>257.206101</ele>
        <time>2024-09-22T09:14:21.000Z</time>
      </trkpt>
      <trkpt lat="42.735714" lon="-83.062858">
        <ele>257.39606</ele>
        <time>2024-09-22T09:14:23.000Z</time>
      </trkpt>
      <trkpt lat="42.735446" lon="-83.062594">
        <ele>257.751396</ele>
        <time>2024-09-22T09:14:27.000Z</time>
      </trkpt>
      <trkpt lat="42.735164" lon="-83.062401">
        <ele>258.069896</ele>
        <time>2024-09-22T09:14:31.000Z</time>
      </trkpt>
      <trkpt lat="42.734783" lon="-83.062255">
        <ele>258.504498</ele>
        <time>2024-09-22T09:14:35.000Z</time>
      </trkpt>
      <trkpt lat="42.734516" lon="-83.062236">
        <ele>258.794642</ele>
        <time>2024-09-22T09:14:38.000Z</time>
      </trkpt>
      <trkpt lat="42.734233" lon="-83.062273">
        <ele>259.108312</ele>
        <time>2024-09-22T09:14:41.000Z</time>
      </trkpt>
      <trkpt lat="42.733206" lon="-83.062492">
        <ele>260.224779</ele>
        <time>2024-09-22T09:14:53.000Z</time>
      </trkpt>
      <trkpt lat="42.733176" lon="-83.062511">
        <ele>260.250772</ele>
        <time>2024-09-22T09:14:53.000Z</time>
      </trkpt>
      <trkpt lat="42.733025" lon="-83.062528">
        <ele>260.38226</ele>
        <time>2024-09-22T09:14:55.000Z</time>
      </trkpt>
      <trkpt lat="42.732771" lon="-83.062538">
        <ele>260.595654</ele>
        <time>2024-09-22T09:14:58.000Z</time>
      </trkpt>
      <trkpt lat="42.732488" lon="-83.062508">
        <ele>260.8309</ele>
        <time>2024-09-22T09:15:01.000Z</time>
      </trkpt>
      <trkpt lat="42.731663" lon="-83.062295">
        <ele>261.52419</ele>
        <time>2024-09-22T09:15:10.000Z</time>
      </trkpt>
      <trkpt lat="42.731363" lon="-83.062217">
        <ele>261.60798</ele>
        <time>2024-09-22T09:15:13.000Z</time>
      </trkpt>
      <trkpt lat="42.731132" lon="-83.06216">
        <ele>261.584713</ele>
        <time>2024-09-22T09:15:16.000Z</time>
      </trkpt>
      <trkpt lat="42.730818" lon="-83.062118">
        <ele>261.549462</ele>
        <time>2024-09-22T09:15:20.000Z</time>
      </trkpt>
      <trkpt lat="42.730548" lon="-83.062148">
        <ele>261.521253</ele>
        <time>2024-09-22T09:15:23.000Z</time>
      </trkpt>
      <trkpt lat="42.730293" lon="-83.062205">
        <ele>261.493475</ele>
        <time>2024-09-22T09:15:26.000Z</time>
      </trkpt>
      <trkpt lat="42.72999" lon="-83.062344">
        <ele>261.460656</ele>
        <time>2024-09-22T09:15:30.000Z</time>
      </trkpt>
      <trkpt lat="42.729725" lon="-83.062483">
        <ele>261.465433</ele>
        <time>2024-09-22T09:15:33.000Z</time>
      </trkpt>
      <trkpt lat="42.729458" lon="-83.0627">
        <ele>261.658542</ele>
        <time>2024-09-22T09:15:36.000Z</time>
      </trkpt>
      <trkpt lat="42.7292" lon="-83.062959">
        <ele>261.846407</ele>
        <time>2024-09-22T09:15:40.000Z</time>
      </trkpt>
      <trkpt lat="42.72896" lon="-83.06328">
        <ele>262.054077</ele>
        <time>2024-09-22T09:15:44.000Z</time>
      </trkpt>
      <trkpt lat="42.728784" lon="-83.063589">
        <ele>262.220606</ele>
        <time>2024-09-22T09:15:47.000Z</time>
      </trkpt>
      <trkpt lat="42.728629" lon="-83.063914">
        <ele>262.391668</ele>
        <time>2024-09-22T09:15:50.000Z</time>
      </trkpt>
      <trkpt lat="42.728547" lon="-83.064148">
        <ele>262.506326</ele>
        <time>2024-09-22T09:15:52.000Z</time>
      </trkpt>
      <trkpt lat="42.728435" lon="-83.064643">
        <ele>262.433984</ele>
        <time>2024-09-22T09:15:56.000Z</time>
      </trkpt>
      <trkpt lat="42.728379" lon="-83.06498">
        <ele>262.374921</ele>
        <time>2024-09-22T09:15:59.000Z</time>
      </trkpt>
      <trkpt lat="42.72834" lon="-83.065566">
        <ele>262.276745</ele>
        <time>2024-09-22T09:16:04.000Z</time>
      </trkpt>
      <trkpt lat="42.728378" lon="-83.066012">
        <ele>262.200054</ele>
        <time>2024-09-22T09:16:08.000Z</time>
      </trkpt>
      <trkpt lat="42.728455" lon="-83.066543">
        <ele>262.109613</ele>
        <time>2024-09-22T09:16:12.000Z</time>
      </trkpt>
      <trkpt lat="42.728729" lon="-83.067876">
        <ele>259.564702</ele>
        <time>2024-09-22T09:16:23.000Z</time>
      </trkpt>
      <trkpt lat="42.728798" lon="-83.068368">
        <ele>258.632411</ele>
        <time>2024-09-22T09:16:27.000Z</time>
      </trkpt>
      <trkpt lat="42.728838" lon="-83.068712">
        <ele>258.011699</ele>
        <time>2024-09-22T09:16:30.000Z</time>
      </trkpt>
      <trkpt lat="42.728835" lon="-83.06934">
        <ele>257.136513</ele>
        <time>2024-09-22T09:16:35.000Z</time>
      </trkpt>
      <trkpt lat="42.728815" lon="-83.06963">
        <ele>256.805805</ele>
        <time>2024-09-22T09:16:37.000Z</time>
      </trkpt>
      <trkpt lat="42.72869" lon="-83.070265">
        <ele>256.093104</ele>
        <time>2024-09-22T09:16:42.000Z</time>
      </trkpt>
      <trkpt lat="42.728535" lon="-83.070741">
        <ele>255.529043</ele>
        <time>2024-09-22T09:16:46.000Z</time>
      </trkpt>
      <trkpt lat="42.728363" lon="-83.071122">
        <ele>255.03609</ele>
        <time>2024-09-22T09:16:50.000Z</time>
      </trkpt>
      <trkpt lat="42.728152" lon="-83.071463">
        <ele>254.867739</ele>
        <time>2024-09-22T09:16:54.000Z</time>
      </trkpt>
      <trkpt lat="42.727907" lon="-83.071794">
        <ele>254.835296</ele>
        <time>2024-09-22T09:16:58.000Z</time>
      </trkpt>
      <trkpt lat="42.727617" lon="-83.072116">
        <ele>254.800126</ele>
        <time>2024-09-22T09:17:02.000Z</time>
      </trkpt>
      <trkpt lat="42.727346" lon="-83.072323">
        <ele>254.770247</ele>
        <time>2024-09-22T09:17:05.000Z</time>
      </trkpt>
      <trkpt lat="42.726476" lon="-83.072799">
        <ele>254.645674</ele>
        <time>2024-09-22T09:17:15.000Z</time>
      </trkpt>
      <trkpt lat="42.726016" lon="-83.073031">
        <ele>254.553655</ele>
        <time>2024-09-22T09:17:20.000Z</time>
      </trkpt>
      <trkpt lat="42.725519" lon="-83.073307">
        <ele>254.448887</ele>
        <time>2024-09-22T09:17:26.000Z</time>
      </trkpt>
      <trkpt lat="42.725381" lon="-83.073399">
        <ele>254.420499</ele>
        <time>2024-09-22T09:17:28.000Z</time>
      </trkpt>
      <trkpt lat="42.725183" lon="-83.073523">
        <ele>254.377832</ele>
        <time>2024-09-22T09:17:30.000Z</time>
      </trkpt>
      <trkpt lat="42.72392" lon="-83.074165">
        <ele>254.161611</ele>
        <time>2024-09-22T09:17:45.000Z</time>
      </trkpt>
      <trkpt lat="42.7234" lon="-83.074449">
        <ele>254.084252</ele>
        <time>2024-09-22T09:17:51.000Z</time>
      </trkpt>
      <trkpt lat="42.722487" lon="-83.074939">
        <ele>254.042021</ele>
        <time>2024-09-22T09:18:02.000Z</time>
      </trkpt>
      <trkpt lat="42.722125" lon="-83.075207">
        <ele>254.023824</ele>
        <time>2024-09-22T09:18:07.000Z</time>
      </trkpt>
      <trkpt lat="42.721783" lon="-83.075555">
        <ele>253.932733</ele>
        <time>2024-09-22T09:18:12.000Z</time>
      </trkpt>
      <trkpt lat="42.72157" lon="-83.075841">
        <ele>253.730105</ele>
        <time>2024-09-22T09:18:15.000Z</time>
      </trkpt>
      <trkpt lat="42.72135" lon="-83.076229">
        <ele>253.491619</ele>
        <time>2024-09-22T09:18:19.000Z</time>
      </trkpt>
      <trkpt lat="42.721116" lon="-83.076853">
        <ele>253.153641</ele>
        <time>2024-09-22T09:18:25.000Z</time>
      </trkpt>
      <trkpt lat="42.720746" lon="-83.078228">
        <ele>251.940226</ele>
        <time>2024-09-22T09:18:37.000Z</time>
      </trkpt>
      <trkpt lat="42.720709" lon="-83.078389">
        <ele>251.752147</ele>
        <time>2024-09-22T09:18:38.000Z</time>
      </trkpt>
      <trkpt lat="42.720569" lon="-83.078874">
        <ele>251.148607</ele>
        <time>2024-09-22T09:18:42.000Z</time>
      </trkpt>
      <trkpt lat="42.720097" lon="-83.080304">
        <ele>249.099933</ele>
        <time>2024-09-22T09:18:55.000Z</time>
      </trkpt>
      <trkpt lat="42.719874" lon="-83.080823">
        <ele>248.135722</ele>
        <time>2024-09-22T09:19:00.000Z</time>
      </trkpt>
      <trkpt lat="42.719674" lon="-83.081246">
        <ele>247.327135</ele>
        <time>2024-09-22T09:19:04.000Z</time>
      </trkpt>
      <trkpt lat="42.719455" lon="-83.081668">
        <ele>246.501224</ele>
        <time>2024-09-22T09:19:08.000Z</time>
      </trkpt>
      <trkpt lat="42.718955" lon="-83.082428">
        <ele>245.187051</ele>
        <time>2024-09-22T09:19:16.000Z</time>
      </trkpt>
      <trkpt lat="42.71848" lon="-83.082996">
        <ele>244.145412</ele>
        <time>2024-09-22T09:19:23.000Z</time>
      </trkpt>
      <trkpt lat="42.717626" lon="-83.083947">
        <ele>242.994377</ele>
        <time>2024-09-22T09:19:35.000Z</time>
      </trkpt>
      <trkpt lat="42.71757" lon="-83.084007">
        <ele>242.966738</ele>
        <time>2024-09-22T09:19:36.000Z</time>
      </trkpt>
      <trkpt lat="42.717091" lon="-83.084529">
        <ele>242.764291</ele>
        <time>2024-09-22T09:19:43.000Z</time>
      </trkpt>
      <trkpt lat="42.716601" lon="-83.085072">
        <ele>242.559922</ele>
        <time>2024-09-22T09:19:50.000Z</time>
      </trkpt>
      <trkpt lat="42.716361" lon="-83.085482">
        <ele>242.615277</ele>
        <time>2024-09-22T09:19:54.000Z</time>
      </trkpt>
      <trkpt lat="42.716053" lon="-83.086185">
        <ele>242.701806</ele>
        <time>2024-09-22T09:20:01.000Z</time>
      </trkpt>
      <trkpt lat="42.715893" lon="-83.086846">
        <ele>242.775167</ele>
        <time>2024-09-22T09:20:07.000Z</time>
      </trkpt>
      <trkpt lat="42.715817" lon="-83.08744">
        <ele>242.774625</ele>
        <time>2024-09-22T09:20:12.000Z</time>
      </trkpt>
      <trkpt lat="42.715821" lon="-83.087927">
        <ele>242.695614</ele>
        <time>2024-09-22T09:20:16.000Z</time>
      </trkpt>
      <trkpt lat="42.715883" lon="-83.088506">
        <ele>242.596466</ele>
        <time>2024-09-22T09:20:21.000Z</time>
      </trkpt>
      <trkpt lat="42.715996" lon="-83.088979">
        <ele>242.517856</ele>
        <time>2024-09-22T09:20:25.000Z</time>
      </trkpt>
      <trkpt lat="42.716072" lon="-83.089204">
        <ele>242.477053</ele>
        <time>2024-09-22T09:20:27.000Z</time>
      </trkpt>
      <trkpt lat="42.716571" lon="-83.090411">
        <ele>242.406725</ele>
        <time>2024-09-22T09:20:38.000Z</time>
      </trkpt>
      <trkpt lat="42.716684" lon="-83.09065">
        <ele>242.405852</ele>
        <time>2024-09-22T09:20:40.000Z</time>
      </trkpt>
      <trkpt lat="42.717466" lon="-83.092371">
        <ele>242.822269</ele>
        <time>2024-09-22T09:20:57.000Z</time>
      </trkpt>
      <trkpt lat="42.71794" lon="-83.093371">
        <ele>243.411022</ele>
        <time>2024-09-22T09:21:07.000Z</time>
      </trkpt>
      <trkpt lat="42.718406" lon="-83.094164">
        <ele>243.834378</ele>
        <time>2024-09-22T09:21:15.000Z</time>
      </trkpt>
      <trkpt lat="42.718403" lon="-83.094174">
        <ele>243.838229</ele>
        <time>2024-09-22T09:21:15.000Z</time>
      </trkpt>
      <trkpt lat="42.718528" lon="-83.094371">
        <ele>243.927527</ele>
        <time>2024-09-22T09:21:17.000Z</time>
      </trkpt>
      <trkpt lat="42.718827" lon="-83.094818">
        <ele>244.152814</ele>
        <time>2024-09-22T09:21:22.000Z</time>
      </trkpt>
      <trkpt lat="42.719494" lon="-83.095717">
        <ele>244.537632</ele>
        <time>2024-09-22T09:21:32.000Z</time>
      </trkpt>
      <trkpt lat="42.719993" lon="-83.096266">
        <ele>244.629358</ele>
        <time>2024-09-22T09:21:39.000Z</time>
      </trkpt>
      <trkpt lat="42.720624" lon="-83.096898">
        <ele>244.741097</ele>
        <time>2024-09-22T09:21:48.000Z</time>
      </trkpt>
      <trkpt lat="42.722658" lon="-83.098766">
        <ele>245.557685</ele>
        <time>2024-09-22T09:22:15.000Z</time>
      </trkpt>
      <trkpt lat="42.723222" lon="-83.099319">
        <ele>246.14796</ele>
        <time>2024-09-22T09:22:23.000Z</time>
      </trkpt>
      <trkpt lat="42.723825" lon="-83.100183">
        <ele>247.169532</ele>
        <time>2024-09-22T09:22:33.000Z</time>
      </trkpt>
      <trkpt lat="42.724116" lon="-83.100849">
        <ele>248.186836</ele>
        <time>2024-09-22T09:22:39.000Z</time>
      </trkpt>
      <trkpt lat="42.724802" lon="-83.102679">
        <ele>251.408867</ele>
        <time>2024-09-22T09:22:56.000Z</time>
      </trkpt>
      <trkpt lat="42.725113" lon="-83.103342">
        <ele>252.895215</ele>
        <time>2024-09-22T09:23:02.000Z</time>
      </trkpt>
      <trkpt lat="42.725317" lon="-83.103607">
        <ele>253.639422</ele>
        <time>2024-09-22T09:23:05.000Z</time>
      </trkpt>
      <trkpt lat="42.725558" lon="-83.103858">
        <ele>254.413718</ele>
        <time>2024-09-22T09:23:08.000Z</time>
      </trkpt>
      <trkpt lat="42.725964" lon="-83.104224">
        <ele>255.198327</ele>
        <time>2024-09-22T09:23:13.000Z</time>
      </trkpt>
      <trkpt lat="42.726299" lon="-83.104445">
        <ele>255.722694</ele>
        <time>2024-09-22T09:23:17.000Z</time>
      </trkpt>
      <trkpt lat="42.727002" lon="-83.104622">
        <ele>256.711577</ele>
        <time>2024-09-22T09:23:25.000Z</time>
      </trkpt>
      <trkpt lat="42.727353" lon="-83.104663">
        <ele>257.096883</ele>
        <time>2024-09-22T09:23:29.000Z</time>
      </trkpt>
      <trkpt lat="42.727698" lon="-83.104606">
        <ele>256.554422</ele>
        <time>2024-09-22T09:23:33.000Z</time>
      </trkpt>
      <trkpt lat="42.728073" lon="-83.104477">
        <ele>255.92193</ele>
        <time>2024-09-22T09:23:37.000Z</time>
      </trkpt>
      <trkpt lat="42.728423" lon="-83.104273">
        <ele>255.331006</ele>
        <time>2024-09-22T09:23:41.000Z</time>
      </trkpt>
      <trkpt lat="42.728911" lon="-83.103884">
        <ele>254.463458</ele>
        <time>2024-09-22T09:23:47.000Z</time>
      </trkpt>
      <trkpt lat="42.729304" lon="-83.103482">
        <ele>253.345734</ele>
        <time>2024-09-22T09:23:52.000Z</time>
      </trkpt>
      <trkpt lat="42.730157" lon="-83.102651">
        <ele>250.931097</ele>
        <time>2024-09-22T09:24:04.000Z</time>
      </trkpt>
      <trkpt lat="42.731488" lon="-83.10178">
        <ele>248.623442</ele>
        <time>2024-09-22T09:24:20.000Z</time>
      </trkpt>
      <trkpt lat="42.731485" lon="-83.101764">
        <ele>248.612986</ele>
        <time>2024-09-22T09:24:20.000Z</time>
      </trkpt>
      <trkpt lat="42.73205" lon="-83.101355">
        <ele>247.773017</ele>
        <time>2024-09-22T09:24:27.000Z</time>
      </trkpt>
      <trkpt lat="42.732245" lon="-83.101154">
        <ele>247.661188</ele>
        <time>2024-09-22T09:24:30.000Z</time>
      </trkpt>
      <trkpt lat="42.732643" lon="-83.100648">
        <ele>247.453567</ele>
        <time>2024-09-22T09:24:36.000Z</time>
      </trkpt>
      <trkpt lat="42.732855" lon="-83.100296">
        <ele>247.323794</ele>
        <time>2024-09-22T09:24:40.000Z</time>
      </trkpt>
      <trkpt lat="42.733026" lon="-83.099918">
        <ele>247.196386</ele>
        <time>2024-09-22T09:24:44.000Z</time>
      </trkpt>
      <trkpt lat="42.733286" lon="-83.099089">
        <ele>246.990184</ele>
        <time>2024-09-22T09:24:51.000Z</time>
      </trkpt>
      <trkpt lat="42.733364" lon="-83.098664">
        <ele>246.916443</ele>
        <time>2024-09-22T09:24:55.000Z</time>
      </trkpt>
      <trkpt lat="42.733411" lon="-83.098203">
        <ele>246.839684</ele>
        <time>2024-09-22T09:24:59.000Z</time>
      </trkpt>
      <trkpt lat="42.733426" lon="-83.097942">
        <ele>246.797894</ele>
        <time>2024-09-22T09:25:01.000Z</time>
      </trkpt>
      <trkpt lat="42.733411" lon="-83.097353">
        <ele>246.699604</ele>
        <time>2024-09-22T09:25:06.000Z</time>
      </trkpt>
      <trkpt lat="42.733366" lon="-83.096879">
        <ele>246.692507</ele>
        <time>2024-09-22T09:25:10.000Z</time>
      </trkpt>
      <trkpt lat="42.733157" lon="-83.096018">
        <ele>246.857529</ele>
        <time>2024-09-22T09:25:17.000Z</time>
      </trkpt>
      <trkpt lat="42.732852" lon="-83.094565">
        <ele>247.107746</ele>
        <time>2024-09-22T09:25:29.000Z</time>
      </trkpt>
      <trkpt lat="42.73275" lon="-83.093536">
        <ele>247.130752</ele>
        <time>2024-09-22T09:25:37.000Z</time>
      </trkpt>
      <trkpt lat="42.732752" lon="-83.093191">
        <ele>247.138012</ele>
        <time>2024-09-22T09:25:40.000Z</time>
      </trkpt>
      <trkpt lat="42.732788" lon="-83.092598">
        <ele>247.151451</ele>
        <time>2024-09-22T09:25:45.000Z</time>
      </trkpt>
      <trkpt lat="42.732911" lon="-83.091751">
        <ele>247.556571</ele>
        <time>2024-09-22T09:25:52.000Z</time>
      </trkpt>
      <trkpt lat="42.732945" lon="-83.091462">
        <ele>247.759349</ele>
        <time>2024-09-22T09:25:54.000Z</time>
      </trkpt>
      <trkpt lat="42.73332" lon="-83.089409">
        <ele>249.227454</ele>
        <time>2024-09-22T09:26:11.000Z</time>
      </trkpt>
      <trkpt lat="42.733464" lon="-83.087916">
        <ele>250.245245</ele>
        <time>2024-09-22T09:26:23.000Z</time>
      </trkpt>
      <trkpt lat="42.733459" lon="-83.08782">
        <ele>250.309492</ele>
        <time>2024-09-22T09:26:24.000Z</time>
      </trkpt>
      <trkpt lat="42.733477" lon="-83.08773">
        <ele>250.371508</ele>
        <time>2024-09-22T09:26:25.000Z</time>
      </trkpt>
      <trkpt lat="42.73347" lon="-83.08769">
        <ele>250.39581</ele>
        <time>2024-09-22T09:26:25.000Z</time>
      </trkpt>
      <trkpt lat="42.733484" lon="-83.087646">
        <ele>250.424759</ele>
        <time>2024-09-22T09:26:25.000Z</time>
      </trkpt>
      <trkpt lat="42.733789" lon="-83.084297">
        <ele>251.57615</ele>
        <time>2024-09-22T09:26:53.000Z</time>
      </trkpt>
      <trkpt lat="42.733896" lon="-83.08367">
        <ele>251.650515</ele>
        <time>2024-09-22T09:26:58.000Z</time>
      </trkpt>
      <trkpt lat="42.734045" lon="-83.083034">
        <ele>251.72909</ele>
        <time>2024-09-22T09:27:03.000Z</time>
      </trkpt>
      <trkpt lat="42.734255" lon="-83.082449">
        <ele>251.758296</ele>
        <time>2024-09-22T09:27:08.000Z</time>
      </trkpt>
      <trkpt lat="42.734508" lon="-83.081931">
        <ele>251.729502</ele>
        <time>2024-09-22T09:27:13.000Z</time>
      </trkpt>
      <trkpt lat="42.73488" lon="-83.08134">
        <ele>251.693614</ele>
        <time>2024-09-22T09:27:19.000Z</time>
      </trkpt>
      <trkpt lat="42.735345" lon="-83.080765">
        <ele>251.67229</ele>
        <time>2024-09-22T09:27:26.000Z</time>
      </trkpt>
      <trkpt lat="42.738162" lon="-83.078347">
        <ele>252.415998</ele>
        <time>2024-09-22T09:28:03.000Z</time>
      </trkpt>
      <trkpt lat="42.738273" lon="-83.078235">
        <ele>252.445067</ele>
        <time>2024-09-22T09:28:05.000Z</time>
      </trkpt>
      <trkpt lat="42.738552" lon="-83.077898">
        <ele>252.179739</ele>
        <time>2024-09-22T09:28:09.000Z</time>
      </trkpt>
      <trkpt lat="42.738765" lon="-83.07753">
        <ele>251.890765</ele>
        <time>2024-09-22T09:28:13.000Z</time>
      </trkpt>
      <trkpt lat="42.738897" lon="-83.077129">
        <ele>251.608728</ele>
        <time>2024-09-22T09:28:17.000Z</time>
      </trkpt>
      <trkpt lat="42.738989" lon="-83.076759">
        <ele>251.348559</ele>
        <time>2024-09-22T09:28:20.000Z</time>
      </trkpt>
      <trkpt lat="42.739014" lon="-83.0766">
        <ele>251.246507</ele>
        <time>2024-09-22T09:28:21.000Z</time>
      </trkpt>
      <trkpt lat="42.739056" lon="-83.076203">
        <ele>250.991927</ele>
        <time>2024-09-22T09:28:24.000Z</time>
      </trkpt>
      <trkpt lat="42.739049" lon="-83.075722">
        <ele>250.458777</ele>
        <time>2024-09-22T09:28:28.000Z</time>
      </trkpt>
      <trkpt lat="42.738978" lon="-83.075219">
        <ele>249.78883</ele>
        <time>2024-09-22T09:28:32.000Z</time>
      </trkpt>
      <trkpt lat="42.738796" lon="-83.074665">
        <ele>248.992594</ele>
        <time>2024-09-22T09:28:37.000Z</time>
      </trkpt>
      <trkpt lat="42.738412" lon="-83.073995">
        <ele>247.881096</ele>
        <time>2024-09-22T09:28:44.000Z</time>
      </trkpt>
      <trkpt lat="42.737221" lon="-83.072105">
        <ele>247.212477</ele>
        <time>2024-09-22T09:29:04.000Z</time>
      </trkpt>
      <trkpt lat="42.737078" lon="-83.071893">
        <ele>247.428902</ele>
        <time>2024-09-22T09:29:06.000Z</time>
      </trkpt>
      <trkpt lat="42.736519" lon="-83.071053">
        <ele>248.863998</ele>
        <time>2024-09-22T09:29:15.000Z</time>
      </trkpt>
      <trkpt lat="42.73636" lon="-83.070773">
        <ele>249.318056</ele>
        <time>2024-09-22T09:29:18.000Z</time>
      </trkpt>
      <trkpt lat="42.73619" lon="-83.070363">
        <ele>249.927827</ele>
        <time>2024-09-22T09:29:22.000Z</time>
      </trkpt>
      <trkpt lat="42.736091" lon="-83.069986">
        <ele>250.436209</ele>
        <time>2024-09-22T09:29:25.000Z</time>
      </trkpt>
      <trkpt lat="42.736024" lon="-83.069644">
        <ele>250.845517</ele>
        <time>2024-09-22T09:29:28.000Z</time>
      </trkpt>
      <trkpt lat="42.735979" lon="-83.069347">
        <ele>251.220233</ele>
        <time>2024-09-22T09:29:30.000Z</time>
      </trkpt>
      <trkpt lat="42.735979" lon="-83.068739">
        <ele>251.940733</ele>
        <time>2024-09-22T09:29:35.000Z</time>
      </trkpt>
      <trkpt lat="42.736223" lon="-83.066065">
        <ele>254.584309</ele>
        <time>2024-09-22T09:29:57.000Z</time>
      </trkpt>
      <trkpt lat="42.736261" lon="-83.065473">
        <ele>255.082954</ele>
        <time>2024-09-22T09:30:02.000Z</time>
      </trkpt>
      <trkpt lat="42.736303" lon="-83.064956">
        <ele>255.524556</ele>
        <time>2024-09-22T09:30:06.000Z</time>
      </trkpt>
      <trkpt lat="42.736311" lon="-83.064516">
        <ele>255.884496</ele>
        <time>2024-09-22T09:30:10.000Z</time>
      </trkpt>
      <trkpt lat="42.736274" lon="-83.064275">
        <ele>256.092483</ele>
        <time>2024-09-22T09:30:12.000Z</time>
      </trkpt>
      <trkpt lat="42.736192" lon="-83.063817">
        <ele>256.482494</ele>
        <time>2024-09-22T09:30:16.000Z</time>
      </trkpt>
      <trkpt lat="42.736042" lon="-83.063409">
        <ele>256.858199</ele>
        <time>2024-09-22T09:30:20.000Z</time>
      </trkpt>
      <trkpt lat="42.735846" lon="-83.063023">
        <ele>257.242102</ele>
        <time>2024-09-22T09:30:24.000Z</time>
      </trkpt>
      <trkpt lat="42.735715" lon="-83.062853">
        <ele>257.431708</ele>
        <time>2024-09-22T09:30:26.000Z</time>
      </trkpt>
      <trkpt lat="42.735435" lon="-83.062586">
        <ele>257.772346</ele>
        <time>2024-09-22T09:30:30.000Z</time>
      </trkpt>
      <trkpt lat="42.735171" lon="-83.062416">
        <ele>258.077666</ele>
        <time>2024-09-22T09:30:33.000Z</time>
      </trkpt>
      <trkpt lat="42.734793" lon="-83.06226">
        <ele>258.485409</ele>
        <time>2024-09-22T09:30:37.000Z</time>
      </trkpt>
      <trkpt lat="42.734515" lon="-83.062237">
        <ele>258.755898</ele>
        <time>2024-09-22T09:30:40.000Z</time>
      </trkpt>
      <trkpt lat="42.734236" lon="-83.062263">
        <ele>259.048339</ele>
        <time>2024-09-22T09:30:43.000Z</time>
      </trkpt>
      <trkpt lat="42.733203" lon="-83.062498">
        <ele>260.204433</ele>
        <time>2024-09-22T09:30:55.000Z</time>
      </trkpt>
      <trkpt lat="42.733185" lon="-83.062501">
        <ele>260.239549</ele>
        <time>2024-09-22T09:30:55.000Z</time>
      </trkpt>
      <trkpt lat="42.733027" lon="-83.062541">
        <ele>260.417207</ele>
        <time>2024-09-22T09:30:57.000Z</time>
      </trkpt>
      <trkpt lat="42.732765" lon="-83.062532">
        <ele>260.705562</ele>
        <time>2024-09-22T09:31:00.000Z</time>
      </trkpt>
      <trkpt lat="42.732476" lon="-83.062504">
        <ele>261.023457</ele>
        <time>2024-09-22T09:31:03.000Z</time>
      </trkpt>
      <trkpt lat="42.73165" lon="-83.062292">
        <ele>261.341254</ele>
        <time>2024-09-22T09:31:12.000Z</time>
      </trkpt>
      <trkpt lat="42.731363" lon="-83.062222">
        <ele>261.41389</ele>
        <time>2024-09-22T09:31:15.000Z</time>
      </trkpt>
      <trkpt lat="42.731141" lon="-83.062176">
        <ele>261.466084</ele>
        <time>2024-09-22T09:31:17.000Z</time>
      </trkpt>
      <trkpt lat="42.730811" lon="-83.062118">
        <ele>261.545181</ele>
        <time>2024-09-22T09:31:21.000Z</time>
      </trkpt>
      <trkpt lat="42.730553" lon="-83.062156">
        <ele>261.605157</ele>
        <time>2024-09-22T09:31:24.000Z</time>
      </trkpt>
      <trkpt lat="42.730285" lon="-83.062215">
        <ele>261.62967</ele>
        <time>2024-09-22T09:31:27.000Z</time>
      </trkpt>
      <trkpt lat="42.730001" lon="-83.062338">
        <ele>261.658633</ele>
        <time>2024-09-22T09:31:30.000Z</time>
      </trkpt>
      <trkpt lat="42.729734" lon="-83.062501">
        <ele>261.68576</ele>
        <time>2024-09-22T09:31:33.000Z</time>
      </trkpt>
      <trkpt lat="42.729457" lon="-83.062712">
        <ele>261.71594</ele>
        <time>2024-09-22T09:31:37.000Z</time>
      </trkpt>
      <trkpt lat="42.729198" lon="-83.062959">
        <ele>261.745314</ele>
        <time>2024-09-22T09:31:41.000Z</time>
      </trkpt>
      <trkpt lat="42.728964" lon="-83.063283">
        <ele>261.810548</ele>
        <time>2024-09-22T09:31:45.000Z</time>
      </trkpt>
      <trkpt lat="42.728776" lon="-83.063574">
        <ele>261.991803</ele>
        <time>2024-09-22T09:31:48.000Z</time>
      </trkpt>
      <trkpt lat="42.728632" lon="-83.063912">
        <ele>262.178022</ele>
        <time>2024-09-22T09:31:51.000Z</time>
      </trkpt>
      <trkpt lat="42.728555" lon="-83.064147">
        <ele>262.302828</ele>
        <time>2024-09-22T09:31:53.000Z</time>
      </trkpt>
      <trkpt lat="42.728419" lon="-83.064644">
        <ele>262.556129</ele>
        <time>2024-09-22T09:31:57.000Z</time>
      </trkpt>
      <trkpt lat="42.728366" lon="-83.064989">
        <ele>262.724816</ele>
        <time>2024-09-22T09:32:00.000Z</time>
      </trkpt>
      <trkpt lat="42.728341" lon="-83.065558">
        <ele>262.805777</ele>
        <time>2024-09-22T09:32:05.000Z</time>
      </trkpt>
      <trkpt lat="42.728362" lon="-83.066021">
        <ele>262.218819</ele>
        <time>2024-09-22T09:32:09.000Z</time>
      </trkpt>
      <trkpt lat="42.72845" lon="-83.066536">
        <ele>261.526492</ele>
        <time>2024-09-22T09:32:13.000Z</time>
      </trkpt>
      <trkpt lat="42.728718" lon="-83.067879">
        <ele>259.714841</ele>
        <time>2024-09-22T09:32:24.000Z</time>
      </trkpt>
      <trkpt lat="42.728804" lon="-83.068372">
        <ele>258.862404</ele>
        <time>2024-09-22T09:32:28.000Z</time>
      </trkpt>
      <trkpt lat="42.728846" lon="-83.068711">
        <ele>258.294863</ele>
        <time>2024-09-22T09:32:31.000Z</time>
      </trkpt>
      <trkpt lat="42.728844" lon="-83.069331">
        <ele>257.226158</ele>
        <time>2024-09-22T09:32:36.000Z</time>
      </trkpt>
      <trkpt lat="42.728813" lon="-83.069643">
        <ele>256.708136</ele>
        <time>2024-09-22T09:32:39.000Z</time>
      </trkpt>
      <trkpt lat="42.728686" lon="-83.070262">
        <ele>255.618077</ele>
        <time>2024-09-22T09:32:44.000Z</time>
      </trkpt>
      <trkpt lat="42.728529" lon="-83.070753">
        <ele>255.428993</ele>
        <time>2024-09-22T09:32:48.000Z</time>
      </trkpt>
      <trkpt lat="42.728345" lon="-83.071125">
        <ele>255.263765</ele>
        <time>2024-09-22T09:32:52.000Z</time>
      </trkpt>
      <trkpt lat="42.728161" lon="-83.071467">
        <ele>255.106262</ele>
        <time>2024-09-22T09:32:55.000Z</time>
      </trkpt>
      <trkpt lat="42.727917" lon="-83.071805">
        <ele>254.934548</ele>
        <time>2024-09-22T09:32:59.000Z</time>
      </trkpt>
      <trkpt lat="42.727617" lon="-83.072114">
        <ele>254.748445</ele>
        <time>2024-09-22T09:33:03.000Z</time>
      </trkpt>
      <trkpt lat="42.727346" lon="-83.072326">
        <ele>254.704633</ele>
        <time>2024-09-22T09:33:06.000Z</time>
      </trkpt>
      <trkpt lat="42.726477" lon="-83.072795">
        <ele>254.611676</ele>
        <time>2024-09-22T09:33:16.000Z</time>
      </trkpt>
      <trkpt lat="42.726027" lon="-83.07302">
        <ele>254.563323</ele>
        <time>2024-09-22T09:33:21.000Z</time>
      </trkpt>
      <trkpt lat="42.725522" lon="-83.07332">
        <ele>254.461275</ele>
        <time>2024-09-22T09:33:27.000Z</time>
      </trkpt>
      <trkpt lat="42.725385" lon="-83.073385">
        <ele>254.430859</ele>
        <time>2024-09-22T09:33:29.000Z</time>
      </trkpt>
      <trkpt lat="42.725168" lon="-83.073523">
        <ele>254.38517</ele>
        <time>2024-09-22T09:33:32.000Z</time>
      </trkpt>
      <trkpt lat="42.723912" lon="-83.074175">
        <ele>254.168765</ele>
        <time>2024-09-22T09:33:47.000Z</time>
      </trkpt>
      <trkpt lat="42.723394" lon="-83.074457">
        <ele>254.142105</ele>
        <time>2024-09-22T09:33:53.000Z</time>
      </trkpt>
      <trkpt lat="42.722502" lon="-83.074945">
        <ele>254.069927</ele>
        <time>2024-09-22T09:34:04.000Z</time>
      </trkpt>
      <trkpt lat="42.722123" lon="-83.075211">
        <ele>253.948802</ele>
        <time>2024-09-22T09:34:09.000Z</time>
      </trkpt>
      <trkpt lat="42.72179" lon="-83.075547">
        <ele>253.827121</ele>
        <time>2024-09-22T09:34:14.000Z</time>
      </trkpt>
      <trkpt lat="42.721571" lon="-83.075847">
        <ele>253.738981</ele>
        <time>2024-09-22T09:34:17.000Z</time>
      </trkpt>
      <trkpt lat="42.721359" lon="-83.076238">
        <ele>253.635239</ele>
        <time>2024-09-22T09:34:21.000Z</time>
      </trkpt>
      <trkpt lat="42.721121" lon="-83.076838">
        <ele>253.207059</ele>
        <time>2024-09-22T09:34:27.000Z</time>
      </trkpt>
      <trkpt lat="42.720743" lon="-83.078231">
        <ele>251.94842</ele>
        <time>2024-09-22T09:34:39.000Z</time>
      </trkpt>
      <trkpt lat="42.720714" lon="-83.078376">
        <ele>251.805577</ele>
        <time>2024-09-22T09:34:40.000Z</time>
      </trkpt>
      <trkpt lat="42.720561" lon="-83.078872">
        <ele>251.258961</ele>
        <time>2024-09-22T09:34:44.000Z</time>
      </trkpt>
      <trkpt lat="42.720081" lon="-83.080308">
        <ele>249.040982</ele>
        <time>2024-09-22T09:34:57.000Z</time>
      </trkpt>
      <trkpt lat="42.719863" lon="-83.080816">
        <ele>248.190623</ele>
        <time>2024-09-22T09:35:02.000Z</time>
      </trkpt>
      <trkpt lat="42.719678" lon="-83.081243">
        <ele>247.425809</ele>
        <time>2024-09-22T09:35:06.000Z</time>
      </trkpt>
      <trkpt lat="42.719441" lon="-83.081665">
        <ele>246.626491</ele>
        <time>2024-09-22T09:35:10.000Z</time>
      </trkpt>
      <trkpt lat="42.718964" lon="-83.082414">
        <ele>245.053641</ele>
        <time>2024-09-22T09:35:18.000Z</time>
      </trkpt>
      <trkpt lat="42.718497" lon="-83.082995">
        <ele>243.996037</ele>
        <time>2024-09-22T09:35:25.000Z</time>
      </trkpt>
      <trkpt lat="42.717638" lon="-83.083949">
        <ele>243.037955</ele>
        <time>2024-09-22T09:35:37.000Z</time>
      </trkpt>
      <trkpt lat="42.717557" lon="-83.084015">
        <ele>242.966989</ele>
        <time>2024-09-22T09:35:38.000Z</time>
      </trkpt>
      <trkpt lat="42.717096" lon="-83.084526">
        <ele>242.640939</ele>
        <time>2024-09-22T09:35:45.000Z</time>
      </trkpt>
      <trkpt lat="42.716608" lon="-83.085066">
        <ele>242.663209</ele>
        <time>2024-09-22T09:35:52.000Z</time>
      </trkpt>
      <trkpt lat="42.716345" lon="-83.085479">
        <ele>242.676642</ele>
        <time>2024-09-22T09:35:56.000Z</time>
      </trkpt>
      <trkpt lat="42.716051" lon="-83.086188">
        <ele>242.695635</ele>
        <time>2024-09-22T09:36:03.000Z</time>
      </trkpt>
      <trkpt lat="42.715879" lon="-83.086848">
        <ele>242.691845</ele>
        <time>2024-09-22T09:36:09.000Z</time>
      </trkpt>
      <trkpt lat="42.715827" lon="-83.087432">
        <ele>242.688572</ele>
        <time>2024-09-22T09:36:14.000Z</time>
      </trkpt>
      <trkpt lat="42.715819" lon="-83.087915">
        <ele>242.685973</ele>
        <time>2024-09-22T09:36:18.000Z</time>
      </trkpt>
      <trkpt lat="42.715886" lon="-83.088513">
        <ele>242.682711</ele>
        <time>2024-09-22T09:36:23.000Z</time>
      </trkpt>
      <trkpt lat="42.715998" lon="-83.088962">
        <ele>242.60073</ele>
        <time>2024-09-22T09:36:27.000Z</time>
      </trkpt>
      <trkpt lat="42.716065" lon="-83.08919">
        <ele>242.55792</ele>
        <time>2024-09-22T09:36:29.000Z</time>
      </trkpt>
      <trkpt lat="42.716587" lon="-83.090403">
        <ele>242.315064</ele>
        <time>2024-09-22T09:36:40.000Z</time>
      </trkpt>
      <trkpt lat="42.716683" lon="-83.090658">
        <ele>242.266675</ele>
        <time>2024-09-22T09:36:42.000Z</time>
      </trkpt>
      <trkpt lat="42.71746" lon="-83.092374">
        <ele>242.825663</ele>
        <time>2024-09-22T09:36:58.000Z</time>
      </trkpt>
      <trkpt lat="42.717943" lon="-83.093374">
        <ele>243.328681</ele>
        <time>2024-09-22T09:37:08.000Z</time>
      </trkpt>
      <trkpt lat="42.718407" lon="-83.094176">
        <ele>243.846558</ele>
        <time>2024-09-22T09:37:16.000Z</time>
      </trkpt>
      <trkpt lat="42.718404" lon="-83.094176">
        <ele>243.851906</ele>
        <time>2024-09-22T09:37:16.000Z</time>
      </trkpt>
      <trkpt lat="42.718526" lon="-83.094375">
        <ele>243.976447</ele>
        <time>2024-09-22T09:37:18.000Z</time>
      </trkpt>
      <trkpt lat="42.71884" lon="-83.094826">
        <ele>244.238925</ele>
        <time>2024-09-22T09:37:23.000Z</time>
      </trkpt>
      <trkpt lat="42.719495" lon="-83.095715">
        <ele>244.480121</ele>
        <time>2024-09-22T09:37:33.000Z</time>
      </trkpt>
      <trkpt lat="42.720004" lon="-83.096261">
        <ele>244.647306</ele>
        <time>2024-09-22T09:37:40.000Z</time>
      </trkpt>
      <trkpt lat="42.720636" lon="-83.096895">
        <ele>244.770371</ele>
        <time>2024-09-22T09:37:49.000Z</time>
      </trkpt>
      <trkpt lat="42.722655" lon="-83.098761">
        <ele>245.500824</ele>
        <time>2024-09-22T09:38:16.000Z</time>
      </trkpt>
      <trkpt lat="42.72322" lon="-83.09933">
        <ele>246.025013</ele>
        <time>2024-09-22T09:38:24.000Z</time>
      </trkpt>
      <trkpt lat="42.723822" lon="-83.100193">
        <ele>247.279434</ele>
        <time>2024-09-22T09:38:34.000Z</time>
      </trkpt>
      <trkpt lat="42.724109" lon="-83.100847">
        <ele>248.072291</ele>
        <time>2024-09-22T09:38:40.000Z</time>
      </trkpt>
      <trkpt lat="42.72481" lon="-83.102693">
        <ele>251.428366</ele>
        <time>2024-09-22T09:38:57.000Z</time>
      </trkpt>
      <trkpt lat="42.725112" lon="-83.103329">
        <ele>252.747019</ele>
        <time>2024-09-22T09:39:03.000Z</time>
      </trkpt>
      <trkpt lat="42.725317" lon="-83.103602">
        <ele>253.42945</ele>
        <time>2024-09-22T09:39:06.000Z</time>
      </trkpt>
      <trkpt lat="42.725544" lon="-83.103871">
        <ele>254.139495</ele>
        <time>2024-09-22T09:39:09.000Z</time>
      </trkpt>
      <trkpt lat="42.72597" lon="-83.104224">
        <ele>255.302552</ele>
        <time>2024-09-22T09:39:15.000Z</time>
      </trkpt>
      <trkpt lat="42.726304" lon="-83.104449">
        <ele>256.197112</ele>
        <time>2024-09-22T09:39:19.000Z</time>
      </trkpt>
      <trkpt lat="42.726994" lon="-83.104623">
        <ele>256.503021</ele>
        <time>2024-09-22T09:39:27.000Z</time>
      </trkpt>
      <trkpt lat="42.727342" lon="-83.104658">
        <ele>256.398654</ele>
        <time>2024-09-22T09:39:31.000Z</time>
      </trkpt>
      <trkpt lat="42.727691" lon="-83.104608">
        <ele>256.295282</ele>
        <time>2024-09-22T09:39:35.000Z</time>
      </trkpt>
      <trkpt lat="42.72808" lon="-83.104478">
        <ele>256.174748</ele>
        <time>2024-09-22T09:39:39.000Z</time>
      </trkpt>
      <trkpt lat="42.728433" lon="-83.104282">
        <ele>255.668206</ele>
        <time>2024-09-22T09:39:43.000Z</time>
      </trkpt>
      <trkpt lat="42.728903" lon="-83.10388">
        <ele>254.374052</ele>
        <time>2024-09-22T09:39:49.000Z</time>
      </trkpt>
      <trkpt lat="42.729305" lon="-83.103471">
        <ele>253.193947</ele>
        <time>2024-09-22T09:39:55.000Z</time>
      </trkpt>
      <trkpt lat="42.730142" lon="-83.102653">
        <ele>251.02005</ele>
        <time>2024-09-22T09:40:06.000Z</time>
      </trkpt>
      <trkpt lat="42.731476" lon="-83.101784">
        <ele>248.478438</ele>
        <time>2024-09-22T09:40:22.000Z</time>
      </trkpt>
      <trkpt lat="42.731488" lon="-83.101774">
        <ele>248.472744</ele>
        <time>2024-09-22T09:40:22.000Z</time>
      </trkpt>
      <trkpt lat="42.73204" lon="-83.101353">
        <ele>248.015563</ele>
        <time>2024-09-22T09:40:29.000Z</time>
      </trkpt>
      <trkpt lat="42.732254" lon="-83.101166">
        <ele>247.835895</ele>
        <time>2024-09-22T09:40:32.000Z</time>
      </trkpt>
      <trkpt lat="42.732637" lon="-83.100661">
        <ele>247.448031</ele>
        <time>2024-09-22T09:40:38.000Z</time>
      </trkpt>
      <trkpt lat="42.73284" lon="-83.100297">
        <ele>247.257966</ele>
        <time>2024-09-22T09:40:42.000Z</time>
      </trkpt>
      <trkpt lat="42.733025" lon="-83.099917">
        <ele>247.145131</ele>
        <time>2024-09-22T09:40:46.000Z</time>
      </trkpt>
      <trkpt lat="42.733301" lon="-83.09909">
        <ele>246.919435</ele>
        <time>2024-09-22T09:40:53.000Z</time>
      </trkpt>
      <trkpt lat="42.733366" lon="-83.098668">
        <ele>246.806862</ele>
        <time>2024-09-22T09:40:57.000Z</time>
      </trkpt>
      <trkpt lat="42.733416" lon="-83.098191">
        <ele>246.691292</ele>
        <time>2024-09-22T09:41:01.000Z</time>
      </trkpt>
      <trkpt lat="42.733429" lon="-83.097948">
        <ele>246.719657</ele>
        <time>2024-09-22T09:41:03.000Z</time>
      </trkpt>
      <trkpt lat="42.73342" lon="-83.09734">
        <ele>246.7864</ele>
        <time>2024-09-22T09:41:08.000Z</time>
      </trkpt>
      <trkpt lat="42.733367" lon="-83.096865">
        <ele>246.839593</ele>
        <time>2024-09-22T09:41:12.000Z</time>
      </trkpt>
      <trkpt lat="42.733161" lon="-83.09602">
        <ele>246.94</ele>
        <time>2024-09-22T09:41:19.000Z</time>
      </trkpt>
      <trkpt lat="42.732847" lon="-83.094561">
        <ele>247.012731</ele>
        <time>2024-09-22T09:41:31.000Z</time>
      </trkpt>
      <trkpt lat="42.732756" lon="-83.093524">
        <ele>247.051819</ele>
        <time>2024-09-22T09:41:40.000Z</time>
      </trkpt>
      <trkpt lat="42.732753" lon="-83.093195">
        <ele>247.131486</ele>
        <time>2024-09-22T09:41:43.000Z</time>
      </trkpt>
      <trkpt lat="42.732774" lon="-83.092585">
        <ele>247.33959</ele>
        <time>2024-09-22T09:41:48.000Z</time>
      </trkpt>
      <trkpt lat="42.73291" lon="-83.091754">
        <ele>247.635786</ele>
        <time>2024-09-22T09:41:55.000Z</time>
      </trkpt>
      <trkpt lat="42.73295" lon="-83.091459">
        <ele>247.73422</ele>
        <time>2024-09-22T09:41:57.000Z</time>
      </trkpt>
      <trkpt lat="42.733312" lon="-83.089418">
        <ele>248.964056</ele>
        <time>2024-09-22T09:42:14.000Z</time>
      </trkpt>
      <trkpt lat="42.733465" lon="-83.087822">
        <ele>249.725725784</ele>
        <time>2024-09-22T09:42:27.000Z</time>
      </trkpt>
      <trkpt lat="42.733364" lon="-83.087808">
        <ele>249.791132709</ele>
        <time>2024-09-22T09:42:28.000Z</time>
      </trkpt>
      <trkpt lat="42.732948" lon="-83.087759">
        <ele>250.060147195</ele>
        <time>2024-09-22T09:42:33.000Z</time>
      </trkpt>
      <trkpt lat="42.732813" lon="-83.08771">
        <ele>250.150160637</ele>
        <time>2024-09-22T09:42:35.000Z</time>
      </trkpt>
      <trkpt lat="42.732212" lon="-83.087716">
        <ele>250.5373729</ele>
        <time>2024-09-22T09:42:42.000Z</time>
      </trkpt>
      <trkpt lat="42.731748" lon="-83.087736">
        <ele>250.836460563</ele>
        <time>2024-09-22T09:42:47.000Z</time>
      </trkpt>
    </trkseg>
  </trk>
</gpx>

<!--
Performance optimized by W3 Total Cache. Learn more: https://www.boldgrid.com/w3-total-cache/?utm_source=w3tc&utm_medium=footer_comment&utm_campaign=free_plugin

Page Caching using Disk: Enhanced{w3tc_pagecache_reject_reason} 

Served from: www.aquabike.world @ 2026-05-10 20:04:29 by W3 Total Cache
-->